WJA104 CYVR-CYYC
Flight info
| Callsign | WJA104 |
|---|---|
| Flight time | 1h 4m |
| Altitude | 33000 |
| Route | DAPED DCT PETLI DCT MENBO Q983 NORET IGVEP7 |
| Aircraft | B738/M-L/C |
Departure
| Time | 2026-05-05 14:18 |
|---|---|
| Airport | Vancouver International Airport (CYVR) |
Arrival
| Time | 2026-05-05 15:22 |
|---|---|
| Airport | Calgary International Airport (CYYC) |
| Time | Latitude | Longitude | Altitude | Speed | Heading |
|---|---|---|---|---|---|
| 2026-05-05 13:53 | 49.19186 | -123.18209 | 8 ft | 0 kts | 10° |
| 2026-05-05 14:09 | 49.19173 | -123.18213 | 8 ft | 2 kts | 10° |
| 2026-05-05 14:09 | 49.19163 | -123.18215 | 8 ft | 2 kts | 7° |
| 2026-05-05 14:09 | 49.19149 | -123.18214 | 8 ft | 2 kts | 346° |
| 2026-05-05 14:09 | 49.19134 | -123.18206 | 8 ft | 2 kts | 329° |
| 2026-05-05 14:10 | 49.19123 | -123.18192 | 8 ft | 2 kts | 312° |
| 2026-05-05 14:10 | 49.19114 | -123.18173 | 8 ft | 2 kts | 295° |
| 2026-05-05 14:10 | 49.19110 | -123.18156 | 8 ft | 0 kts | 281° |
| 2026-05-05 14:10 | 49.19109 | -123.18146 | 8 ft | 0 kts | 279° |
| 2026-05-05 14:12 | 49.19110 | -123.18150 | 8 ft | 2 kts | 279° |
| 2026-05-05 14:12 | 49.19116 | -123.18207 | 8 ft | 8 kts | 280° |
| 2026-05-05 14:13 | 49.19121 | -123.18304 | 8 ft | 9 kts | 264° |
| 2026-05-05 14:13 | 49.19105 | -123.18425 | 8 ft | 13 kts | 275° |
| 2026-05-05 14:13 | 49.19153 | -123.18524 | 8 ft | 11 kts | 297° |
| 2026-05-05 14:13 | 49.19149 | -123.18662 | 8 ft | 14 kts | 298° |
| 2026-05-05 14:14 | 49.19226 | -123.18768 | 8 ft | 17 kts | 321° |
| 2026-05-05 14:14 | 49.19327 | -123.18889 | 8 ft | 15 kts | 322° |
| 2026-05-05 14:14 | 49.19358 | -123.19035 | 8 ft | 17 kts | 261° |
| 2026-05-05 14:14 | 49.19333 | -123.19228 | 8 ft | 18 kts | 259° |
| 2026-05-05 14:15 | 49.19309 | -123.19421 | 8 ft | 17 kts | 258° |
| 2026-05-05 14:15 | 49.19284 | -123.19627 | 8 ft | 22 kts | 260° |
| 2026-05-05 14:15 | 49.19250 | -123.19875 | 8 ft | 20 kts | 257° |
| 2026-05-05 14:15 | 49.19225 | -123.20099 | 8 ft | 20 kts | 259° |
| 2026-05-05 14:16 | 49.19198 | -123.20317 | 8 ft | 20 kts | 259° |
| 2026-05-05 14:16 | 49.19181 | -123.20526 | 8 ft | 20 kts | 277° |
| 2026-05-05 14:16 | 49.19197 | -123.20674 | 8 ft | 14 kts | 279° |
| 2026-05-05 14:16 | 49.19167 | -123.20818 | 8 ft | 16 kts | 204° |
| 2026-05-05 14:17 | 49.19056 | -123.20842 | 8 ft | 16 kts | 165° |
| 2026-05-05 14:17 | 49.19000 | -123.20694 | 8 ft | 16 kts | 100° |
| 2026-05-05 14:17 | 49.18968 | -123.20418 | 8 ft | 58 kts | 99° |
| 2026-05-05 14:17 | 49.18848 | -123.19360 | 8 ft | 141 kts | 100° |
| 2026-05-05 14:18 | 49.18659 | -123.17660 | 490 ft | 172 kts | 99° |
| 2026-05-05 14:18 | 49.18496 | -123.15903 | 1543 ft | 175 kts | 98° |
| 2026-05-05 14:18 | 49.18332 | -123.14082 | 2560 ft | 178 kts | 99° |
| 2026-05-05 14:18 | 49.18129 | -123.12154 | 3369 ft | 195 kts | 100° |
| 2026-05-05 14:19 | 49.17923 | -123.10152 | 4379 ft | 199 kts | 97° |
| 2026-05-05 14:19 | 49.17724 | -123.08057 | 5284 ft | 208 kts | 97° |
| 2026-05-05 14:19 | 49.17501 | -123.05680 | 5744 ft | 242 kts | 96° |
| 2026-05-05 14:19 | 49.17410 | -123.03082 | 6610 ft | 253 kts | 90° |
| 2026-05-05 14:20 | 49.17380 | -123.00459 | 7786 ft | 252 kts | 89° |
| 2026-05-05 14:20 | 49.17339 | -122.97725 | 8650 ft | 262 kts | 90° |
| 2026-05-05 14:20 | 49.17298 | -122.94982 | 9679 ft | 264 kts | 89° |
| 2026-05-05 14:20 | 49.17296 | -122.92128 | 10471 ft | 274 kts | 88° |
| 2026-05-05 14:21 | 49.17294 | -122.89267 | 11459 ft | 276 kts | 87° |
| 2026-05-05 14:21 | 49.17273 | -122.86314 | 12319 ft | 281 kts | 87° |
| 2026-05-05 14:21 | 49.17232 | -122.83212 | 13225 ft | 284 kts | 87° |
| 2026-05-05 14:21 | 49.17182 | -122.80122 | 14092 ft | 287 kts | 86° |
| 2026-05-05 14:22 | 49.17128 | -122.76941 | 14958 ft | 291 kts | 86° |
| 2026-05-05 14:22 | 49.17074 | -122.73770 | 15739 ft | 293 kts | 86° |
| 2026-05-05 14:22 | 49.17018 | -122.70480 | 16563 ft | 298 kts | 85° |
| 2026-05-05 14:22 | 49.16962 | -122.67176 | 17341 ft | 301 kts | 85° |
| 2026-05-05 14:23 | 49.16903 | -122.63781 | 18039 ft | 305 kts | 85° |
| 2026-05-05 14:23 | 49.16840 | -122.60214 | 18784 ft | 308 kts | 85° |
| 2026-05-05 14:23 | 49.16777 | -122.56664 | 19526 ft | 312 kts | 85° |
| 2026-05-05 14:23 | 49.16710 | -122.53016 | 20271 ft | 316 kts | 85° |
| 2026-05-05 14:24 | 49.16639 | -122.49199 | 20979 ft | 320 kts | 85° |
| 2026-05-05 14:24 | 49.16565 | -122.45317 | 21720 ft | 323 kts | 85° |
| 2026-05-05 14:24 | 49.16489 | -122.41413 | 22410 ft | 326 kts | 85° |
| 2026-05-05 14:24 | 49.16409 | -122.37388 | 23077 ft | 329 kts | 85° |
| 2026-05-05 14:25 | 49.16332 | -122.33561 | 23659 ft | 334 kts | 85° |
| 2026-05-05 14:25 | 49.16250 | -122.29488 | 24276 ft | 337 kts | 85° |
| 2026-05-05 14:25 | 49.16166 | -122.25439 | 24886 ft | 340 kts | 85° |
| 2026-05-05 14:25 | 49.16077 | -122.21229 | 25447 ft | 345 kts | 85° |
| 2026-05-05 14:26 | 49.15987 | -122.17069 | 26037 ft | 347 kts | 85° |
| 2026-05-05 14:26 | 49.15894 | -122.12794 | 26593 ft | 350 kts | 85° |
| 2026-05-05 14:26 | 49.15800 | -122.08617 | 27129 ft | 353 kts | 85° |
| 2026-05-05 14:26 | 49.15704 | -122.04369 | 27604 ft | 357 kts | 85° |
| 2026-05-05 14:27 | 49.15606 | -122.00102 | 28117 ft | 359 kts | 85° |
| 2026-05-05 14:27 | 49.15506 | -121.95818 | 28579 ft | 362 kts | 85° |
| 2026-05-05 14:27 | 49.15407 | -121.91634 | 29016 ft | 365 kts | 85° |
| 2026-05-05 14:27 | 49.15301 | -121.87244 | 29504 ft | 367 kts | 85° |
| 2026-05-05 14:28 | 49.15194 | -121.82898 | 29966 ft | 369 kts | 85° |
| 2026-05-05 14:28 | 49.15084 | -121.78492 | 30370 ft | 371 kts | 85° |
| 2026-05-05 14:28 | 49.14974 | -121.74080 | 30759 ft | 374 kts | 85° |
| 2026-05-05 14:28 | 49.14890 | -121.69607 | 31158 ft | 375 kts | 83° |
| 2026-05-05 14:29 | 49.15019 | -121.65385 | 31492 ft | 374 kts | 78° |
| 2026-05-05 14:29 | 49.15321 | -121.61135 | 31821 ft | 376 kts | 76° |
| 2026-05-05 14:29 | 49.15695 | -121.56949 | 32181 ft | 377 kts | 75° |
| 2026-05-05 14:29 | 49.16104 | -121.52666 | 32512 ft | 379 kts | 75° |
| 2026-05-05 14:30 | 49.16511 | -121.48399 | 32881 ft | 380 kts | 75° |
| 2026-05-05 14:30 | 49.16924 | -121.44003 | 33049 ft | 388 kts | 75° |
| 2026-05-05 14:30 | 49.17353 | -121.39389 | 33045 ft | 400 kts | 75° |
| 2026-05-05 14:30 | 49.17787 | -121.34628 | 33042 ft | 412 kts | 76° |
| 2026-05-05 14:31 | 49.18188 | -121.30169 | 33044 ft | 423 kts | 76° |
| 2026-05-05 14:31 | 49.18600 | -121.25525 | 33049 ft | 434 kts | 76° |
| 2026-05-05 14:31 | 49.19409 | -121.16115 | 33062 ft | 433 kts | 77° |
| 2026-05-05 14:32 | 49.20238 | -121.06464 | 33078 ft | 452 kts | 77° |
| 2026-05-05 14:32 | 49.21108 | -120.96290 | 33088 ft | 465 kts | 77° |
| 2026-05-05 14:33 | 49.21961 | -120.86067 | 33082 ft | 464 kts | 77° |
| 2026-05-05 14:33 | 49.22804 | -120.75832 | 33069 ft | 464 kts | 77° |
| 2026-05-05 14:34 | 49.23625 | -120.65804 | 33059 ft | 464 kts | 76° |
| 2026-05-05 14:34 | 49.24453 | -120.55622 | 33056 ft | 464 kts | 76° |
| 2026-05-05 14:35 | 49.25261 | -120.45580 | 33041 ft | 465 kts | 76° |
| 2026-05-05 14:35 | 49.26061 | -120.35532 | 33055 ft | 465 kts | 76° |
| 2026-05-05 14:36 | 49.26856 | -120.25446 | 33073 ft | 465 kts | 77° |
| 2026-05-05 14:36 | 49.27630 | -120.15506 | 33077 ft | 465 kts | 77° |
| 2026-05-05 14:37 | 49.28389 | -120.05654 | 33064 ft | 464 kts | 77° |
| 2026-05-05 14:37 | 49.29154 | -119.95601 | 33052 ft | 464 kts | 77° |
| 2026-05-05 14:38 | 49.29910 | -119.85560 | 33054 ft | 465 kts | 76° |
| 2026-05-05 14:38 | 49.30667 | -119.75375 | 33024 ft | 465 kts | 76° |
| 2026-05-05 14:39 | 49.31548 | -119.65215 | 33005 ft | 460 kts | 72° |
| 2026-05-05 14:39 | 49.33496 | -119.55797 | 32995 ft | 447 kts | 59° |
| 2026-05-05 14:40 | 49.36239 | -119.46967 | 32998 ft | 442 kts | 56° |
| 2026-05-05 14:40 | 49.39196 | -119.38296 | 33008 ft | 441 kts | 55° |
| 2026-05-05 14:41 | 49.42137 | -119.29619 | 33008 ft | 442 kts | 56° |
| 2026-05-05 14:41 | 49.45074 | -119.20763 | 33024 ft | 443 kts | 56° |
| 2026-05-05 14:42 | 49.47956 | -119.11947 | 33024 ft | 443 kts | 56° |
| 2026-05-05 14:42 | 49.50801 | -119.03165 | 33025 ft | 441 kts | 56° |
| 2026-05-05 14:43 | 49.53672 | -118.94263 | 33025 ft | 440 kts | 56° |
| 2026-05-05 14:43 | 49.56543 | -118.85326 | 33037 ft | 441 kts | 56° |
| 2026-05-05 14:44 | 49.59403 | -118.76397 | 33034 ft | 441 kts | 56° |
| 2026-05-05 14:44 | 49.62260 | -118.67445 | 33035 ft | 441 kts | 56° |
| 2026-05-05 14:45 | 49.65105 | -118.58493 | 33034 ft | 440 kts | 56° |
| 2026-05-05 14:45 | 49.67977 | -118.49420 | 33035 ft | 440 kts | 55° |
| 2026-05-05 14:46 | 49.70880 | -118.40224 | 33023 ft | 440 kts | 56° |
| 2026-05-05 14:46 | 49.73674 | -118.31335 | 33014 ft | 440 kts | 56° |
| 2026-05-05 14:47 | 49.76564 | -118.22115 | 33009 ft | 440 kts | 56° |
| 2026-05-05 14:47 | 49.79390 | -118.13058 | 33017 ft | 439 kts | 56° |
| 2026-05-05 14:48 | 49.82193 | -118.04044 | 33022 ft | 440 kts | 56° |
| 2026-05-05 14:48 | 49.85038 | -117.94864 | 33025 ft | 439 kts | 56° |
| 2026-05-05 14:49 | 49.87904 | -117.85580 | 33024 ft | 439 kts | 56° |
| 2026-05-05 14:49 | 49.90701 | -117.76479 | 33018 ft | 436 kts | 56° |
| 2026-05-05 14:50 | 49.93536 | -117.67233 | 33020 ft | 438 kts | 56° |
| 2026-05-05 14:50 | 49.96289 | -117.58216 | 33020 ft | 438 kts | 55° |
| 2026-05-05 14:51 | 49.99086 | -117.49024 | 33024 ft | 438 kts | 55° |
| 2026-05-05 14:51 | 50.01886 | -117.39775 | 33033 ft | 437 kts | 55° |
| 2026-05-05 14:52 | 50.04579 | -117.30859 | 33043 ft | 437 kts | 56° |
| 2026-05-05 14:52 | 50.07382 | -117.21542 | 33042 ft | 438 kts | 56° |
| 2026-05-05 14:53 | 50.10107 | -117.12451 | 33051 ft | 437 kts | 56° |
| 2026-05-05 14:53 | 50.12774 | -117.03517 | 33053 ft | 437 kts | 56° |
| 2026-05-05 14:54 | 50.15501 | -116.94334 | 33059 ft | 436 kts | 55° |
| 2026-05-05 14:54 | 50.18208 | -116.85213 | 33063 ft | 436 kts | 55° |
| 2026-05-05 14:55 | 50.20892 | -116.76109 | 33029 ft | 435 kts | 55° |
| 2026-05-05 14:55 | 50.23584 | -116.66954 | 33013 ft | 435 kts | 55° |
| 2026-05-05 14:56 | 50.26253 | -116.57844 | 33014 ft | 432 kts | 55° |
| 2026-05-05 14:56 | 50.27624 | -116.53103 | 33010 ft | 414 kts | 55° |
| 2026-05-05 14:56 | 50.28929 | -116.48551 | 32968 ft | 397 kts | 54° |
| 2026-05-05 14:57 | 50.31302 | -116.40348 | 32974 ft | 388 kts | 54° |
| 2026-05-05 14:57 | 50.32491 | -116.36289 | 32829 ft | 385 kts | 53° |
| 2026-05-05 14:57 | 50.33622 | -116.32411 | 32405 ft | 386 kts | 54° |
| 2026-05-05 14:58 | 50.34806 | -116.28352 | 31802 ft | 387 kts | 54° |
| 2026-05-05 14:58 | 50.36020 | -116.24178 | 31128 ft | 389 kts | 54° |
| 2026-05-05 14:58 | 50.37200 | -116.20108 | 30345 ft | 392 kts | 55° |
| 2026-05-05 14:58 | 50.38376 | -116.16039 | 29623 ft | 393 kts | 55° |
| 2026-05-05 14:59 | 50.39532 | -116.11910 | 29108 ft | 398 kts | 57° |
| 2026-05-05 14:59 | 50.40593 | -116.07578 | 28542 ft | 410 kts | 60° |
| 2026-05-05 14:59 | 50.41591 | -116.03052 | 27930 ft | 410 kts | 61° |
| 2026-05-05 14:59 | 50.42568 | -115.98402 | 27346 ft | 405 kts | 61° |
| 2026-05-05 15:00 | 50.43511 | -115.93881 | 26719 ft | 402 kts | 61° |
| 2026-05-05 15:00 | 50.44172 | -115.90736 | 26303 ft | 399 kts | 61° |
| 2026-05-05 15:00 | 50.45496 | -115.84510 | 25534 ft | 392 kts | 60° |
| 2026-05-05 15:00 | 50.46511 | -115.79791 | 24892 ft | 388 kts | 60° |
| 2026-05-05 15:01 | 50.47507 | -115.75182 | 24317 ft | 382 kts | 60° |
| 2026-05-05 15:01 | 50.48526 | -115.70493 | 23690 ft | 378 kts | 60° |
| 2026-05-05 15:01 | 50.49481 | -115.66100 | 23077 ft | 376 kts | 60° |
| 2026-05-05 15:01 | 50.50454 | -115.61651 | 22327 ft | 376 kts | 60° |
| 2026-05-05 15:02 | 50.51419 | -115.57229 | 21625 ft | 376 kts | 61° |
| 2026-05-05 15:02 | 50.52397 | -115.52725 | 21026 ft | 372 kts | 61° |
| 2026-05-05 15:02 | 50.53350 | -115.48303 | 20431 ft | 368 kts | 61° |
| 2026-05-05 15:02 | 50.54295 | -115.43913 | 19794 ft | 366 kts | 62° |
| 2026-05-05 15:03 | 50.55235 | -115.39538 | 19169 ft | 363 kts | 62° |
| 2026-05-05 15:03 | 50.56157 | -115.35235 | 18533 ft | 361 kts | 62° |
| 2026-05-05 15:03 | 50.57000 | -115.31303 | 17835 ft | 362 kts | 63° |
| 2026-05-05 15:03 | 50.57913 | -115.27042 | 17083 ft | 362 kts | 64° |
| 2026-05-05 15:04 | 50.58805 | -115.22859 | 16435 ft | 361 kts | 64° |
| 2026-05-05 15:04 | 50.59707 | -115.18607 | 15839 ft | 357 kts | 64° |
| 2026-05-05 15:04 | 50.60591 | -115.14422 | 15235 ft | 354 kts | 64° |
| 2026-05-05 15:04 | 50.61472 | -115.10256 | 14573 ft | 352 kts | 65° |
| 2026-05-05 15:05 | 50.63192 | -115.02091 | 13851 ft | 335 kts | 65° |
| 2026-05-05 15:05 | 50.64016 | -114.98186 | 13875 ft | 336 kts | 65° |
| 2026-05-05 15:05 | 50.64870 | -114.94171 | 13866 ft | 337 kts | 64° |
| 2026-05-05 15:06 | 50.65701 | -114.90237 | 13637 ft | 330 kts | 65° |
| 2026-05-05 15:06 | 50.66487 | -114.86500 | 13086 ft | 329 kts | 65° |
| 2026-05-05 15:06 | 50.67210 | -114.83063 | 12853 ft | 322 kts | 65° |
| 2026-05-05 15:06 | 50.67932 | -114.79610 | 12864 ft | 326 kts | 65° |
| 2026-05-05 15:07 | 50.68627 | -114.76283 | 12817 ft | 320 kts | 65° |
| 2026-05-05 15:07 | 50.69302 | -114.73010 | 12704 ft | 307 kts | 65° |
| 2026-05-05 15:07 | 50.69947 | -114.69869 | 12599 ft | 295 kts | 65° |
| 2026-05-05 15:07 | 50.70607 | -114.66881 | 12472 ft | 281 kts | 60° |
| 2026-05-05 15:08 | 50.71540 | -114.64353 | 12394 ft | 260 kts | 44° |
| 2026-05-05 15:08 | 50.72755 | -114.62309 | 12291 ft | 256 kts | 38° |
| 2026-05-05 15:08 | 50.74176 | -114.60175 | 11999 ft | 254 kts | 38° |
| 2026-05-05 15:08 | 50.75568 | -114.58021 | 11910 ft | 250 kts | 39° |
| 2026-05-05 15:09 | 50.76797 | -114.56049 | 11869 ft | 253 kts | 40° |
| 2026-05-05 15:09 | 50.78040 | -114.54024 | 11311 ft | 262 kts | 40° |
| 2026-05-05 15:09 | 50.79332 | -114.51915 | 10666 ft | 271 kts | 41° |
| 2026-05-05 15:09 | 50.80663 | -114.49743 | 10079 ft | 277 kts | 41° |
| 2026-05-05 15:10 | 50.82123 | -114.47442 | 9899 ft | 260 kts | 40° |
| 2026-05-05 15:10 | 50.83539 | -114.45297 | 9950 ft | 250 kts | 39° |
| 2026-05-05 15:10 | 50.84793 | -114.43416 | 9921 ft | 245 kts | 39° |
| 2026-05-05 15:10 | 50.86167 | -114.41344 | 9910 ft | 246 kts | 39° |
| 2026-05-05 15:11 | 50.87553 | -114.39239 | 9759 ft | 238 kts | 40° |
| 2026-05-05 15:11 | 50.88860 | -114.37245 | 9509 ft | 234 kts | 40° |
| 2026-05-05 15:11 | 50.90130 | -114.35307 | 9152 ft | 244 kts | 40° |
| 2026-05-05 15:11 | 50.91255 | -114.33224 | 8933 ft | 244 kts | 56° |
| 2026-05-05 15:12 | 50.91773 | -114.30434 | 8941 ft | 240 kts | 84° |
| 2026-05-05 15:12 | 50.91669 | -114.27492 | 8807 ft | 241 kts | 90° |
| 2026-05-05 15:12 | 50.91527 | -114.24548 | 8518 ft | 240 kts | 89° |
| 2026-05-05 15:12 | 50.91409 | -114.21623 | 8216 ft | 239 kts | 92° |
| 2026-05-05 15:13 | 50.90883 | -114.18872 | 7977 ft | 243 kts | 121° |
| 2026-05-05 15:13 | 50.89458 | -114.16956 | 7855 ft | 249 kts | 154° |
| 2026-05-05 15:13 | 50.87528 | -114.16300 | 7473 ft | 251 kts | 179° |
| 2026-05-05 15:13 | 50.85533 | -114.16386 | 7162 ft | 247 kts | 181° |
| 2026-05-05 15:14 | 50.83642 | -114.16173 | 6918 ft | 240 kts | 169° |
| 2026-05-05 15:14 | 50.81911 | -114.15169 | 6933 ft | 237 kts | 144° |
| 2026-05-05 15:14 | 50.80672 | -114.13058 | 6937 ft | 235 kts | 118° |
| 2026-05-05 15:14 | 50.79969 | -114.10377 | 6938 ft | 233 kts | 102° |
| 2026-05-05 15:15 | 50.79869 | -114.07639 | 6937 ft | 227 kts | 77° |
| 2026-05-05 15:15 | 50.80503 | -114.05106 | 6939 ft | 224 kts | 56° |
| 2026-05-05 15:15 | 50.81541 | -114.03005 | 6928 ft | 220 kts | 40° |
| 2026-05-05 15:15 | 50.83036 | -114.01840 | 6935 ft | 218 kts | 8° |
| 2026-05-05 15:16 | 50.84590 | -114.01945 | 6942 ft | 210 kts | 353° |
| 2026-05-05 15:16 | 50.86064 | -114.02151 | 6932 ft | 192 kts | 358° |
| 2026-05-05 15:16 | 50.87349 | -114.02161 | 6906 ft | 176 kts | 359° |
| 2026-05-05 15:16 | 50.88573 | -114.02143 | 6802 ft | 171 kts | 359° |
| 2026-05-05 15:17 | 50.89785 | -114.02143 | 6656 ft | 173 kts | 359° |
| 2026-05-05 15:17 | 50.90978 | -114.02151 | 6473 ft | 171 kts | 359° |
| 2026-05-05 15:17 | 50.92164 | -114.02154 | 6449 ft | 169 kts | 360° |
| 2026-05-05 15:17 | 50.93315 | -114.02151 | 6440 ft | 161 kts | 360° |
| 2026-05-05 15:18 | 50.94452 | -114.02147 | 6473 ft | 158 kts | 359° |
| 2026-05-05 15:18 | 50.95564 | -114.02142 | 6370 ft | 162 kts | 359° |
| 2026-05-05 15:18 | 50.96687 | -114.02142 | 6159 ft | 161 kts | 360° |
| 2026-05-05 15:18 | 50.97788 | -114.02142 | 5936 ft | 154 kts | 359° |
| 2026-05-05 15:19 | 50.98824 | -114.02138 | 5725 ft | 147 kts | 360° |
| 2026-05-05 15:19 | 50.99858 | -114.02138 | 5532 ft | 151 kts | 359° |
| 2026-05-05 15:19 | 51.00901 | -114.02143 | 5309 ft | 148 kts | 358° |
| 2026-05-05 15:19 | 51.01924 | -114.02145 | 5108 ft | 151 kts | 358° |
| 2026-05-05 15:20 | 51.02962 | -114.02142 | 4921 ft | 143 kts | 360° |
| 2026-05-05 15:20 | 51.03935 | -114.02135 | 4668 ft | 137 kts | 358° |
| 2026-05-05 15:20 | 51.04880 | -114.02138 | 4526 ft | 136 kts | 359° |
| 2026-05-05 15:20 | 51.05823 | -114.02126 | 4326 ft | 138 kts | 358° |
| 2026-05-05 15:21 | 51.06782 | -114.02113 | 4140 ft | 138 kts | 357° |
| 2026-05-05 15:21 | 51.07731 | -114.02136 | 3965 ft | 138 kts | 358° |
| 2026-05-05 15:21 | 51.08683 | -114.02132 | 3793 ft | 137 kts | 358° |
| 2026-05-05 15:21 | 51.09633 | -114.02130 | 3578 ft | 136 kts | 357° |
| 2026-05-05 15:22 | 51.10471 | -114.02138 | 3543 ft | 91 kts | 360° |
| 2026-05-05 15:22 | 51.10925 | -114.02141 | 3545 ft | 58 kts | 360° |
| 2026-05-05 15:22 | 51.11275 | -114.02134 | 3549 ft | 43 kts | 0° |
| 2026-05-05 15:22 | 51.11540 | -114.02110 | 3551 ft | 33 kts | 17° |
| 2026-05-05 15:23 | 51.11682 | -114.02003 | 3552 ft | 13 kts | 29° |
| 2026-05-05 15:23 | 51.11751 | -114.01907 | 3552 ft | 13 kts | 71° |
| 2026-05-05 15:23 | 51.11810 | -114.01804 | 3551 ft | 13 kts | 13° |